sensor_id;sensor_type;location;lat;lon;timestamp;pressure;altitude;pressure_sealevel;temperature;humidity
72359;BME280;60317;48.880;-0.862;2023-04-01T00:01:00;99331.88;;;19.08;47.38
72359;BME280;60317;48.880;-0.862;2023-04-01T00:03:27;99335.56;;;19.07;47.41
72359;BME280;60317;48.880;-0.862;2023-04-01T00:05:54;99329.50;;;19.05;47.40
72359;BME280;60317;48.880;-0.862;2023-04-01T00:08:21;99346.44;;;19.06;47.34
72359;BME280;60317;48.880;-0.862;2023-04-01T00:10:48;99331.72;;;19.10;47.42
72359;BME280;60317;48.880;-0.862;2023-04-01T00:13:17;99342.59;;;19.08;47.32
72359;BME280;60317;48.880;-0.862;2023-04-01T00:15:44;99349.94;;;19.06;47.36
72359;BME280;60317;48.880;-0.862;2023-04-01T00:18:11;99357.13;;;19.06;47.38
72359;BME280;60317;48.880;-0.862;2023-04-01T00:20:38;99356.28;;;19.05;47.43
72359;BME280;60317;48.880;-0.862;2023-04-01T00:23:04;99350.63;;;19.08;47.39
72359;BME280;60317;48.880;-0.862;2023-04-01T00:25:31;99357.97;;;19.06;47.27
72359;BME280;60317;48.880;-0.862;2023-04-01T00:27:58;99368.16;;;19.03;47.39
72359;BME280;60317;48.880;-0.862;2023-04-01T00:30:26;99384.06;;;19.04;47.36
72359;BME280;60317;48.880;-0.862;2023-04-01T00:32:53;99372.97;;;18.99;47.20
72359;BME280;60317;48.880;-0.862;2023-04-01T00:35:20;99367.75;;;18.98;47.54
72359;BME280;60317;48.880;-0.862;2023-04-01T00:37:46;99368.75;;;18.97;47.46
72359;BME280;60317;48.880;-0.862;2023-04-01T00:40:24;99375.78;;;18.98;47.31
72359;BME280;60317;48.880;-0.862;2023-04-01T00:42:50;99376.91;;;18.95;47.44
72359;BME280;60317;48.880;-0.862;2023-04-01T00:45:28;99376.91;;;18.95;47.43
72359;BME280;60317;48.880;-0.862;2023-04-01T00:47:56;99371.00;;;18.92;47.45
72359;BME280;60317;48.880;-0.862;2023-04-01T00:50:25;99375.41;;;18.93;47.54
72359;BME280;60317;48.880;-0.862;2023-04-01T00:52:53;99384.25;;;18.93;47.56
72359;BME280;60317;48.880;-0.862;2023-04-01T00:55:21;99381.59;;;18.93;47.49
72359;BME280;60317;48.880;-0.862;2023-04-01T00:57:50;99380.88;;;18.91;47.58
72359;BME280;60317;48.880;-0.862;2023-04-01T01:00:19;99378.19;;;18.91;47.47
72359;BME280;60317;48.880;-0.862;2023-04-01T01:02:50;99379.19;;;18.90;47.51
72359;BME280;60317;48.880;-0.862;2023-04-01T01:05:21;99385.09;;;18.94;47.51
72359;BME280;60317;48.880;-0.862;2023-04-01T01:08:00;99387.94;;;18.92;47.62
72359;BME280;60317;48.880;-0.862;2023-04-01T01:10:31;99377.22;;;18.92;47.31
72359;BME280;60317;48.880;-0.862;2023-04-01T01:13:04;99376.91;;;18.95;47.37
72359;BME280;60317;48.880;-0.862;2023-04-01T01:15:39;99380.59;;;18.94;47.21
72359;BME280;60317;48.880;-0.862;2023-04-01T01:18:13;99387.94;;;18.92;47.31
72359;BME280;60317;48.880;-0.862;2023-04-01T01:26:24;99378.75;;;18.95;47.33
72359;BME280;60317;48.880;-0.862;2023-04-01T01:29:07;99386.94;;;18.93;47.56
72359;BME280;60317;48.880;-0.862;2023-04-01T01:31:46;99384.41;;;18.92;47.53
72359;BME280;60317;48.880;-0.862;2023-04-01T01:34:22;99394.97;;;18.93;47.31
72359;BME280;60317;48.880;-0.862;2023-04-01T01:36:59;99401.16;;;18.94;47.36
72359;BME280;60317;48.880;-0.862;2023-04-01T01:39:30;99395.97;;;18.92;47.33
72359;BME280;60317;48.880;-0.862;2023-04-01T01:42:00;99415.25;;;18.96;47.36
72359;BME280;60317;48.880;-0.862;2023-04-01T01:44:28;99412.88;;;18.93;47.29
72359;BME280;60317;48.880;-0.862;2023-04-01T01:46:56;99417.69;;;18.89;47.48
72359;BME280;60317;48.880;-0.862;2023-04-01T01:49:24;99416.41;;;18.93;47.23
72359;BME280;60317;48.880;-0.862;2023-04-01T01:51:51;99416.84;;;18.89;47.41
72359;BME280;60317;48.880;-0.862;2023-04-01T01:54:19;99415.84;;;18.90;47.44
72359;BME280;60317;48.880;-0.862;2023-04-01T01:56:48;99415.69;;;18.91;47.40
72359;BME280;60317;48.880;-0.862;2023-04-01T01:59:18;99418.66;;;18.88;47.50
72359;BME280;60317;48.880;-0.862;2023-04-01T02:01:50;99413.75;;;18.83;47.48
72359;BME280;60317;48.880;-0.862;2023-04-01T02:04:18;99418.66;;;18.88;47.45
72359;BME280;60317;48.880;-0.862;2023-04-01T02:06:49;99427.22;;;18.92;47.58
72359;BME280;60317;48.880;-0.862;2023-04-01T02:09:19;99422.19;;;18.89;47.61
72359;BME280;60317;48.880;-0.862;2023-04-01T02:11:48;99424.88;;;18.89;47.59
72359;BME280;60317;48.880;-0.862;2023-04-01T02:14:18;99424.00;;;18.88;47.66
72359;BME280;60317;48.880;-0.862;2023-04-01T02:16:49;99419.66;;;18.87;47.47
72359;BME280;60317;48.880;-0.862;2023-04-01T02:19:18;99423.47;;;18.84;47.47
72359;BME280;60317;48.880;-0.862;2023-04-01T02:21:44;99427.69;;;18.87;47.54
72359;BME280;60317;48.880;-0.862;2023-04-01T02:24:13;99427.84;;;18.86;47.35
72359;BME280;60317;48.880;-0.862;2023-04-01T02:26:42;99428.69;;;18.86;47.63
72359;BME280;60317;48.880;-0.862;2023-04-01T02:29:11;99412.75;;;18.84;47.54
72359;BME280;60317;48.880;-0.862;2023-04-01T02:31:38;99422.34;;;18.87;47.34
72359;BME280;60317;48.880;-0.862;2023-04-01T02:34:06;99414.47;;;18.86;47.40
72359;BME280;60317;48.880;-0.862;2023-04-01T02:36:34;99425.84;;;18.88;47.51
72359;BME280;60317;48.880;-0.862;2023-04-01T02:39:02;99417.97;;;18.86;47.52
72359;BME280;60317;48.880;-0.862;2023-04-01T02:41:28;99420.94;;;18.83;47.50
72359;BME280;60317;48.880;-0.862;2023-04-01T02:43:57;99418.97;;;18.85;47.58
72359;BME280;60317;48.880;-0.862;2023-04-01T02:46:23;99419.13;;;18.83;47.70
72359;BME280;60317;48.880;-0.862;2023-04-01T02:48:50;99421.66;;;18.85;47.61
72359;BME280;60317;48.880;-0.862;2023-04-01T02:51:16;99415.59;;;18.83;47.72
72359;BME280;60317;48.880;-0.862;2023-04-01T02:53:43;99413.09;;;18.81;47.82
72359;BME280;60317;48.880;-0.862;2023-04-01T02:56:10;99416.59;;;18.82;48.02
72359;BME280;60317;48.880;-0.862;2023-04-01T02:58:36;99424.47;;;18.83;47.77
72359;BME280;60317;48.880;-0.862;2023-04-01T03:01:04;99426.47;;;18.81;47.80
72359;BME280;60317;48.880;-0.862;2023-04-01T03:03:31;99429.97;;;18.82;47.70
72359;BME280;60317;48.880;-0.862;2023-04-01T03:05:57;99423.91;;;18.80;47.85
72359;BME280;60317;48.880;-0.862;2023-04-01T03:08:24;99429.97;;;18.82;47.82
72359;BME280;60317;48.880;-0.862;2023-04-01T03:10:50;99436.31;;;18.81;47.83
72359;BME280;60317;48.880;-0.862;2023-04-01T03:13:17;99438.84;;;18.82;47.57
72359;BME280;60317;48.880;-0.862;2023-04-01T03:15:43;99435.34;;;18.82;47.79
72359;BME280;60317;48.880;-0.862;2023-04-01T03:18:11;99435.34;;;18.82;47.86
72359;BME280;60317;48.880;-0.862;2023-04-01T03:20:38;99444.34;;;18.81;47.66
72359;BME280;60317;48.880;-0.862;2023-04-01T03:23:04;99445.03;;;18.83;47.76
72359;BME280;60317;48.880;-0.862;2023-04-01T03:25:31;99456.75;;;18.82;47.79
72359;BME280;60317;48.880;-0.862;2023-04-01T03:27:57;99451.81;;;18.77;47.94
72359;BME280;60317;48.880;-0.862;2023-04-01T03:30:24;99445.63;;;18.77;48.15
72359;BME280;60317;48.880;-0.862;2023-04-01T03:32:51;99450.00;;;18.78;47.93
72359;BME280;60317;48.880;-0.862;2023-04-01T03:35:18;99438.31;;;18.79;48.12
72359;BME280;60317;48.880;-0.862;2023-04-01T03:37:45;99439.13;;;18.79;48.03
72359;BME280;60317;48.880;-0.862;2023-04-01T03:40:12;99443.09;;;18.75;48.07
72359;BME280;60317;48.880;-0.862;2023-04-01T03:42:38;99439.59;;;18.75;48.00
72359;BME280;60317;48.880;-0.862;2023-04-01T03:45:05;99438.44;;;18.77;48.21
72359;BME280;60317;48.880;-0.862;2023-04-01T03:47:32;99448.31;;;18.77;47.95
72359;BME280;60317;48.880;-0.862;2023-04-01T03:49:59;99442.41;;;18.73;48.02
72359;BME280;60317;48.880;-0.862;2023-04-01T03:52:27;99450.13;;;18.76;47.93
72359;BME280;60317;48.880;-0.862;2023-04-01T03:54:53;99450.00;;;18.78;48.01
72359;BME280;60317;48.880;-0.862;2023-04-01T03:57:20;99441.09;;;18.77;47.99
72359;BME280;60317;48.880;-0.862;2023-04-01T03:59:46;99450.31;;;18.75;47.99
72359;BME280;60317;48.880;-0.862;2023-04-01T04:02:13;99442.94;;;18.77;47.91
72359;BME280;60317;48.880;-0.862;2023-04-01T04:04:39;99441.28;;;18.76;47.90
72359;BME280;60317;48.880;-0.862;2023-04-01T04:07:06;99450.31;;;18.75;47.94
72359;BME280;60317;48.880;-0.862;2023-04-01T04:09:34;99451.13;;;18.75;47.87
72359;BME280;60317;48.880;-0.862;2023-04-01T04:12:01;99451.81;;;18.77;47.87
72359;BME280;60317;48.880;-0.862;2023-04-01T04:14:27;99456.50;;;18.75;47.95
72359;BME280;60317;48.880;-0.862;2023-04-01T04:16:54;99454.66;;;18.76;48.07
72359;BME280;60317;48.880;-0.862;2023-04-01T04:19:20;99458.34;;;18.75;47.97
72359;BME280;60317;48.880;-0.862;2023-04-01T04:21:47;99461.84;;;18.75;47.90
72359;BME280;60317;48.880;-0.862;2023-04-01T04:24:13;99460.84;;;18.76;47.97
72359;BME280;60317;48.880;-0.862;2023-04-01T04:26:41;99470.00;;;18.74;47.94
72359;BME280;60317;48.880;-0.862;2023-04-01T04:29:08;99460.16;;;18.74;47.98
72359;BME280;60317;48.880;-0.862;2023-04-01T04:31:34;99459.00;;;18.77;47.83
72359;BME280;60317;48.880;-0.862;2023-04-01T04:34:01;99462.53;;;18.77;47.92
72359;BME280;60317;48.880;-0.862;2023-04-01T04:36:27;99469.72;;;18.77;47.74
72359;BME280;60317;48.880;-0.862;2023-04-01T04:38:54;99472.25;;;18.78;47.52
72359;BME280;60317;48.880;-0.862;2023-04-01T04:41:20;99474.09;;;18.78;47.74
72359;BME280;60317;48.880;-0.862;2023-04-01T04:43:51;99475.06;;;18.77;47.58
72359;BME280;60317;48.880;-0.862;2023-04-01T04:46:18;99471.72;;;18.75;47.83
72359;BME280;60317;48.880;-0.862;2023-04-01T04:48:45;99470.72;;;18.76;47.96
72359;BME280;60317;48.880;-0.862;2023-04-01T04:51:14;99468.59;;;18.79;47.73
72359;BME280;60317;48.880;-0.862;2023-04-01T04:53:41;99458.88;;;18.78;47.73
72359;BME280;60317;48.880;-0.862;2023-04-01T04:56:08;99467.19;;;18.75;47.83
72359;BME280;60317;48.880;-0.862;2023-04-01T04:58:35;99466.38;;;18.75;47.61
72359;BME280;60317;48.880;-0.862;2023-04-01T05:01:07;99465.19;;;18.77;47.68
72359;BME280;60317;48.880;-0.862;2023-04-01T05:03:34;99470.72;;;18.76;47.69
72359;BME280;60317;48.880;-0.862;2023-04-01T05:06:01;99476.91;;;18.76;47.61
72359;BME280;60317;48.880;-0.862;2023-04-01T05:08:27;99476.78;;;18.78;47.67
72359;BME280;60317;48.880;-0.862;2023-04-01T05:10:54;99471.00;;;18.73;47.82
72359;BME280;60317;48.880;-0.862;2023-04-01T05:13:21;99484.25;;;18.74;47.61
72359;BME280;60317;48.880;-0.862;2023-04-01T05:15:47;99486.94;;;18.74;47.91
72359;BME280;60317;48.880;-0.862;2023-04-01T05:18:15;99484.38;;;18.73;47.79
72359;BME280;60317;48.880;-0.862;2023-04-01T05:20:46;99485.94;;;18.75;47.66
72359;BME280;60317;48.880;-0.862;2023-04-01T05:23:12;99498.19;;;18.78;47.89
72359;BME280;60317;48.880;-0.862;2023-04-01T05:25:39;99485.09;;;18.75;47.72
72359;BME280;60317;48.880;-0.862;2023-04-01T05:28:05;99500.44;;;18.73;47.90
72359;BME280;60317;48.880;-0.862;2023-04-01T05:30:32;99499.69;;;18.71;47.99
72359;BME280;60317;48.880;-0.862;2023-04-01T05:32:58;99496.09;;;18.72;47.79
72359;BME280;60317;48.880;-0.862;2023-04-01T05:35:26;99497.03;;;18.71;47.84
72359;BME280;60317;48.880;-0.862;2023-04-01T05:37:53;99487.31;;;18.70;47.83
72359;BME280;60317;48.880;-0.862;2023-04-01T05:40:19;99498.78;;;18.72;47.82
72359;BME280;60317;48.880;-0.862;2023-04-01T05:42:45;99499.88;;;18.69;47.85
72359;BME280;60317;48.880;-0.862;2023-04-01T05:45:12;99508.34;;;18.74;47.86
72359;BME280;60317;48.880;-0.862;2023-04-01T05:47:39;99498.78;;;18.72;47.67
72359;BME280;60317;48.880;-0.862;2023-04-01T05:50:05;99495.25;;;18.71;47.93
72359;BME280;60317;48.880;-0.862;2023-04-01T05:52:33;99503.13;;;18.73;47.85
72359;BME280;60317;48.880;-0.862;2023-04-01T05:55:00;99497.03;;;18.71;47.96
72359;BME280;60317;48.880;-0.862;2023-04-01T05:57:26;99520.88;;;18.74;47.85
72359;BME280;60317;48.880;-0.862;2023-04-01T05:59:53;99508.63;;;18.71;48.11
72359;BME280;60317;48.880;-0.862;2023-04-01T06:02:19;99512.00;;;18.73;47.82
72359;BME280;60317;48.880;-0.862;2023-04-01T06:04:46;99514.09;;;18.70;47.99
72359;BME280;60317;48.880;-0.862;2023-04-01T06:07:14;99500.84;;;18.68;48.00
72359;BME280;60317;48.880;-0.862;2023-04-01T06:09:43;99514.25;;;18.68;47.91
72359;BME280;60317;48.880;-0.862;2023-04-01T06:12:26;99508.06;;;18.68;47.95
72359;BME280;60317;48.880;-0.862;2023-04-01T06:15:02;99513.25;;;18.69;47.81
72359;BME280;60317;48.880;-0.862;2023-04-01T06:17:43;99517.75;;;18.69;47.84
72359;BME280;60317;48.880;-0.862;2023-04-01T06:20:24;99512.25;;;18.70;47.94
72359;BME280;60317;48.880;-0.862;2023-04-01T06:23:04;99521.28;;;18.69;47.83
72359;BME280;60317;48.880;-0.862;2023-04-01T06:25:46;99518.59;;;18.69;47.91
72359;BME280;60317;48.880;-0.862;2023-04-01T06:28:34;99519.59;;;18.68;47.99
72359;BME280;60317;48.880;-0.862;2023-04-01T06:31:11;99521.44;;;18.68;48.00
72359;BME280;60317;48.880;-0.862;2023-04-01T06:33:52;99524.09;;;18.68;47.99
72359;BME280;60317;48.880;-0.862;2023-04-01T06:36:35;99526.63;;;18.69;48.06
72359;BME280;60317;48.880;-0.862;2023-04-01T06:39:22;99527.63;;;18.68;47.86
72359;BME280;60317;48.880;-0.862;2023-04-01T06:42:03;99526.63;;;18.69;48.03
72359;BME280;60317;48.880;-0.862;2023-04-01T06:44:43;99524.09;;;18.68;47.93
72359;BME280;60317;48.880;-0.862;2023-04-01T06:47:23;99532.25;;;18.66;47.64
72359;BME280;60317;48.880;-0.862;2023-04-01T06:49:56;99529.75;;;18.65;47.94
72359;BME280;60317;48.880;-0.862;2023-04-01T06:52:39;99529.47;;;18.68;47.89
72359;BME280;60317;48.880;-0.862;2023-04-01T06:55:21;99527.75;;;18.67;47.91
72359;BME280;60317;48.880;-0.862;2023-04-01T06:57:55;99535.66;;;18.68;47.83
72359;BME280;60317;48.880;-0.862;2023-04-01T07:00:27;99534.81;;;18.68;47.84
72359;BME280;60317;48.880;-0.862;2023-04-01T07:03:02;99531.28;;;18.67;47.73
72359;BME280;60317;48.880;-0.862;2023-04-01T07:05:33;99536.78;;;18.66;47.94
72359;BME280;60317;48.880;-0.862;2023-04-01T07:08:03;99543.81;;;18.67;47.69
72359;BME280;60317;48.880;-0.862;2023-04-01T07:10:34;99529.59;;;18.66;47.98
72359;BME280;60317;48.880;-0.862;2023-04-01T07:13:06;99538.47;;;18.67;47.92
72359;BME280;60317;48.880;-0.862;2023-04-01T07:15:37;99535.94;;;18.65;47.94
72359;BME280;60317;48.880;-0.862;2023-04-01T07:18:10;99541.28;;;18.65;47.97
72359;BME280;60317;48.880;-0.862;2023-04-01T07:20:39;99543.81;;;18.67;47.68
72359;BME280;60317;48.880;-0.862;2023-04-01T07:23:08;99541.41;;;18.64;47.98
72359;BME280;60317;48.880;-0.862;2023-04-01T07:25:39;99534.53;;;18.61;48.03
72359;BME280;60317;48.880;-0.862;2023-04-01T07:28:13;99546.66;;;18.65;48.11
72359;BME280;60317;48.880;-0.862;2023-04-01T07:30:50;99544.97;;;18.64;47.84
72359;BME280;60317;48.880;-0.862;2023-04-01T07:33:22;99554.81;;;18.64;47.98
72359;BME280;60317;48.880;-0.862;2023-04-01T07:35:56;99543.97;;;18.65;48.15
72359;BME280;60317;48.880;-0.862;2023-04-01T07:38:33;99551.16;;;18.65;48.02
72359;BME280;60317;48.880;-0.862;2023-04-01T07:41:10;99545.81;;;18.65;48.09
72359;BME280;60317;48.880;-0.862;2023-04-01T07:43:54;99552.84;;;18.66;48.07
72359;BME280;60317;48.880;-0.862;2023-04-01T07:46:38;99554.13;;;18.71;47.95
72359;BME280;60317;48.880;-0.862;2023-04-01T07:49:14;99549.16;;;18.67;47.98
72359;BME280;60317;48.880;-0.862;2023-04-01T07:51:45;99557.47;;;18.64;47.95
72359;BME280;60317;48.880;-0.862;2023-04-01T07:54:19;99552.00;;;18.65;48.24
72359;BME280;60317;48.880;-0.862;2023-04-01T07:56:51;99569.59;;;18.68;48.29
72359;BME280;60317;48.880;-0.862;2023-04-01T07:59:30;99562.41;;;18.68;48.27
72359;BME280;60317;48.880;-0.862;2023-04-01T08:02:07;99568.91;;;18.66;48.13
72359;BME280;60317;48.880;-0.862;2023-04-01T08:04:46;99573.13;;;18.68;48.15
72359;BME280;60317;48.880;-0.862;2023-04-01T08:07:21;99560.72;;;18.67;48.04
72359;BME280;60317;48.880;-0.862;2023-04-01T08:09:55;99551.16;;;18.65;48.25
72359;BME280;60317;48.880;-0.862;2023-04-01T08:12:36;99556.63;;;18.63;48.09
72359;BME280;60317;48.880;-0.862;2023-04-01T08:15:18;99555.66;;;18.64;48.11
72359;BME280;60317;48.880;-0.862;2023-04-01T08:17:53;99545.38;;;18.59;48.13
72359;BME280;60317;48.880;-0.862;2023-04-01T08:20:28;99551.44;;;18.62;48.39
72359;BME280;60317;48.880;-0.862;2023-04-01T08:23:01;99551.44;;;18.62;48.25
72359;BME280;60317;48.880;-0.862;2023-04-01T08:25:32;99553.84;;;18.65;48.37
72359;BME280;60317;48.880;-0.862;2023-04-01T08:28:08;99564.53;;;18.65;48.27
72359;BME280;60317;48.880;-0.862;2023-04-01T08:30:42;99561.59;;;18.68;48.35
72359;BME280;60317;48.880;-0.862;2023-04-01T08:33:13;99565.50;;;18.64;48.23
72359;BME280;60317;48.880;-0.862;2023-04-01T08:35:46;99571.56;;;18.66;48.51
72359;BME280;60317;48.880;-0.862;2023-04-01T08:38:19;99573.53;;;18.64;48.27
72359;BME280;60317;48.880;-0.862;2023-04-01T08:40:59;99575.25;;;18.65;48.69
72359;BME280;60317;48.880;-0.862;2023-04-01T08:43:41;99574.41;;;18.64;48.38
72359;BME280;60317;48.880;-0.862;2023-04-01T08:46:23;99573.53;;;18.64;48.73
72359;BME280;60317;48.880;-0.862;2023-04-01T08:49:05;99567.91;;;18.67;48.27
72359;BME280;60317;48.880;-0.862;2023-04-01T08:51:48;99568.06;;;18.65;48.44
72359;BME280;60317;48.880;-0.862;2023-04-01T08:54:30;99571.41;;;18.67;48.41
72359;BME280;60317;48.880;-0.862;2023-04-01T08:57:07;99575.94;;;18.67;48.49
72359;BME280;60317;48.880;-0.862;2023-04-01T08:59:50;99571.97;;;18.71;48.43
72359;BME280;60317;48.880;-0.862;2023-04-01T09:02:39;99568.63;;;18.69;48.58
72359;BME280;60317;48.880;-0.862;2023-04-01T09:05:25;99577.91;;;18.65;48.69
72359;BME280;60317;48.880;-0.862;2023-04-01T09:08:03;99581.28;;;18.67;48.41
72359;BME280;60317;48.880;-0.862;2023-04-01T09:10:45;99581.28;;;18.67;48.62
72359;BME280;60317;48.880;-0.862;2023-04-01T09:13:29;99577.47;;;18.69;48.53
72359;BME280;60317;48.880;-0.862;2023-04-01T09:16:12;99575.25;;;18.65;48.61
72359;BME280;60317;48.880;-0.862;2023-04-01T09:18:54;99579.44;;;18.67;48.79
72359;BME280;60317;48.880;-0.862;2023-04-01T09:21:34;99580.44;;;18.66;48.57
72359;BME280;60317;48.880;-0.862;2023-04-01T09:24:26;99572.56;;;18.65;48.74
72359;BME280;60317;48.880;-0.862;2023-04-01T09:27:04;99576.22;;;18.64;48.86
72359;BME280;60317;48.880;-0.862;2023-04-01T09:29:44;99565.22;;;18.67;48.57
72359;BME280;60317;48.880;-0.862;2023-04-01T09:32:30;99568.91;;;18.66;48.61
72359;BME280;60317;48.880;-0.862;2023-04-01T09:35:10;99567.22;;;18.65;48.72
72359;BME280;60317;48.880;-0.862;2023-04-01T09:37:52;99580.31;;;18.68;48.66
72359;BME280;60317;48.880;-0.862;2023-04-01T09:40:31;99584.25;;;18.64;48.73
72359;BME280;60317;48.880;-0.862;2023-04-01T09:43:12;99584.25;;;18.64;48.77
72359;BME280;60317;48.880;-0.862;2023-04-01T09:45:51;99584.13;;;18.65;48.65
72359;BME280;60317;48.880;-0.862;2023-04-01T09:48:36;99579.59;;;18.66;48.44
72359;BME280;60317;48.880;-0.862;2023-04-01T09:51:13;99589.47;;;18.65;48.70
72359;BME280;60317;48.880;-0.862;2023-04-01T09:53:57;99580.03;;;18.61;48.72
72359;BME280;60317;48.880;-0.862;2023-04-01T09:56:46;99592.59;;;18.60;48.75
72359;BME280;60317;48.880;-0.862;2023-04-01T09:59:41;99596.50;;;18.66;48.41
72359;BME280;60317;48.880;-0.862;2023-04-01T10:02:32;99595.94;;;18.63;48.45
72359;BME280;60317;48.880;-0.862;2023-04-01T10:08:11;99593.25;;;18.63;48.66
72359;BME280;60317;48.880;-0.862;2023-04-01T10:10:59;99590.31;;;18.66;48.71
72359;BME280;60317;48.880;-0.862;2023-04-01T10:16:34;99582.72;;;18.61;48.68
72359;BME280;60317;48.880;-0.862;2023-04-01T10:19:32;99582.56;;;18.63;48.66
72359;BME280;60317;48.880;-0.862;2023-04-01T10:22:21;99582.44;;;18.64;48.75
72359;BME280;60317;48.880;-0.862;2023-04-01T10:25:10;99586.91;;;18.64;48.80
72359;BME280;60317;48.880;-0.862;2023-04-01T10:27:50;99594.25;;;18.62;48.70
72359;BME280;60317;48.880;-0.862;2023-04-01T10:33:23;99599.34;;;18.65;48.89
72359;BME280;60317;48.880;-0.862;2023-04-01T10:36:10;99598.78;;;18.61;48.96
72359;BME280;60317;48.880;-0.862;2023-04-01T10:39:00;99601.16;;;18.64;48.83
72359;BME280;60317;48.880;-0.862;2023-04-01T10:41:55;99601.84;;;18.66;48.68
72359;BME280;60317;48.880;-0.862;2023-04-01T10:44:46;99607.38;;;18.65;48.77
72359;BME280;60317;48.880;-0.862;2023-04-01T10:47:37;99610.03;;;18.65;48.83
72359;BME280;60317;48.880;-0.862;2023-04-01T10:50:20;99607.50;;;18.63;48.75
72359;BME280;60317;48.880;-0.862;2023-04-01T10:58:51;99603.28;;;18.60;48.77
72359;BME280;60317;48.880;-0.862;2023-04-01T11:01:39;99621.44;;;18.67;48.90
72359;BME280;60317;48.880;-0.862;2023-04-01T11:04:39;99610.03;;;18.65;48.83
72359;BME280;60317;48.880;-0.862;2023-04-01T11:07:27;99610.03;;;18.65;48.92
72359;BME280;60317;48.880;-0.862;2023-04-01T11:10:21;99613.13;;;18.60;49.03
72359;BME280;60317;48.880;-0.862;2023-04-01T11:13:18;99619.34;;;18.60;49.14
72359;BME280;60317;48.880;-0.862;2023-04-01T11:21:51;99620.75;;;18.65;49.05
72359;BME280;60317;48.880;-0.862;2023-04-01T11:24:36;99611.72;;;18.66;48.95
72359;BME280;60317;48.880;-0.862;2023-04-01T11:27:19;99624.38;;;18.64;49.03
72359;BME280;60317;48.880;-0.862;2023-04-01T11:30:04;99616.50;;;18.62;48.98
72359;BME280;60317;48.880;-0.862;2023-04-01T11:32:43;99623.41;;;18.65;49.07
72359;BME280;60317;48.880;-0.862;2023-04-01T11:35:26;99616.22;;;18.65;48.91
72359;BME280;60317;48.880;-0.862;2023-04-01T11:38:10;99616.66;;;18.60;49.07
72359;BME280;60317;48.880;-0.862;2023-04-01T11:40:46;99619.34;;;18.60;48.96
72359;BME280;60317;48.880;-0.862;2023-04-01T11:43:21;99632.41;;;18.64;49.13
72359;BME280;60317;48.880;-0.862;2023-04-01T11:46:00;99618.19;;;18.63;49.17
72359;BME280;60317;48.880;-0.862;2023-04-01T11:48:46;99634.13;;;18.65;49.03
72359;BME280;60317;48.880;-0.862;2023-04-01T11:51:33;99641.59;;;18.61;49.14
72359;BME280;60317;48.880;-0.862;2023-04-01T11:54:17;99639.03;;;18.59;49.24
72359;BME280;60317;48.880;-0.862;2023-04-01T11:56:58;99646.66;;;18.64;49.06
72359;BME280;60317;48.880;-0.862;2023-04-01T11:59:44;99639.03;;;18.59;49.27
72359;BME280;60317;48.880;-0.862;2023-04-01T12:02:20;99647.50;;;18.65;49.27
72359;BME280;60317;48.880;-0.862;2023-04-01T12:05:03;99640.75;;;18.60;49.36
72359;BME280;60317;48.880;-0.862;2023-04-01T12:07:50;99643.44;;;18.60;49.53
72359;BME280;60317;48.880;-0.862;2023-04-01T12:10:26;99645.13;;;18.62;49.82
72359;BME280;60317;48.880;-0.862;2023-04-01T12:13:01;99644.28;;;18.61;49.70
72359;BME280;60317;48.880;-0.862;2023-04-01T12:15:37;99662.84;;;18.63;49.74
72359;BME280;60317;48.880;-0.862;2023-04-01T12:18:17;99652.41;;;18.59;49.51
72359;BME280;60317;48.880;-0.862;2023-04-01T12:20:50;99657.94;;;18.58;49.68
72359;BME280;60317;48.880;-0.862;2023-04-01T12:23:40;99646.09;;;18.60;49.61
72359;BME280;60317;48.880;-0.862;2023-04-01T12:26:33;99655.38;;;18.56;49.55
72359;BME280;60317;48.880;-0.862;2023-04-01T12:29:11;99650.59;;;18.60;49.69
72359;BME280;60317;48.880;-0.862;2023-04-01T12:31:47;99667.38;;;18.62;49.66
72359;BME280;60317;48.880;-0.862;2023-04-01T12:34:33;99655.94;;;18.60;50.04
72359;BME280;60317;48.880;-0.862;2023-04-01T12:37:08;99659.78;;;18.57;49.87
72359;BME280;60317;48.880;-0.862;2023-04-01T12:39:51;99669.47;;;18.58;49.96
72359;BME280;60317;48.880;-0.862;2023-04-01T12:42:35;99656.66;;;18.62;49.76
72359;BME280;60317;48.880;-0.862;2023-04-01T12:45:18;99654.13;;;18.60;49.82
72359;BME280;60317;48.880;-0.862;2023-04-01T12:48:04;99677.34;;;18.60;49.85
72359;BME280;60317;48.880;-0.862;2023-04-01T12:50:56;99671.03;;;18.61;49.79
72359;BME280;60317;48.880;-0.862;2023-04-01T12:53:42;99666.66;;;18.60;49.76
72359;BME280;60317;48.880;-0.862;2023-04-01T12:56:16;99669.63;;;18.57;49.78
72359;BME280;60317;48.880;-0.862;2023-04-01T12:58:59;99668.63;;;18.58;49.85
72359;BME280;60317;48.880;-0.862;2023-04-01T13:04:30;99683.56;;;18.60;49.75
72359;BME280;60317;48.880;-0.862;2023-04-01T13:07:15;99674.56;;;18.62;49.59
72359;BME280;60317;48.880;-0.862;2023-04-01T13:09:51;99676.78;;;18.56;49.53
72359;BME280;60317;48.880;-0.862;2023-04-01T13:12:34;99688.22;;;18.58;49.82
72359;BME280;60317;48.880;-0.862;2023-04-01T13:15:16;99690.88;;;18.58;49.78
72359;BME280;60317;48.880;-0.862;2023-04-01T13:17:51;99688.94;;;18.60;49.53
72359;BME280;60317;48.880;-0.862;2023-04-01T13:20:32;99694.41;;;18.59;49.70
72359;BME280;60317;48.880;-0.862;2023-04-01T13:23:10;99704.00;;;18.62;49.60
72359;BME280;60317;48.880;-0.862;2023-04-01T13:25:47;99704.13;;;18.60;49.54
72359;BME280;60317;48.880;-0.862;2023-04-01T13:28:37;99706.94;;;18.58;49.70
72359;BME280;60317;48.880;-0.862;2023-04-01T13:31:11;99711.31;;;18.59;49.57
72359;BME280;60317;48.880;-0.862;2023-04-01T13:33:46;99713.41;;;18.56;49.72
72359;BME280;60317;48.880;-0.862;2023-04-01T13:36:21;99707.94;;;18.57;49.49
72359;BME280;60317;48.880;-0.862;2023-04-01T13:39:05;99706.94;;;18.58;49.76
72359;BME280;60317;48.880;-0.862;2023-04-01T13:41:45;99697.78;;;18.61;49.57
72359;BME280;60317;48.880;-0.862;2023-04-01T13:44:20;99701.03;;;18.65;49.51
72359;BME280;60317;48.880;-0.862;2023-04-01T13:47:06;99695.97;;;18.62;49.54
72359;BME280;60317;48.880;-0.862;2023-04-01T13:49:45;99699.63;;;18.60;49.27
72359;BME280;60317;48.880;-0.862;2023-04-01T13:52:27;99689.78;;;18.61;49.56
72359;BME280;60317;48.880;-0.862;2023-04-01T13:55:11;99694.28;;;18.60;49.53
72359;BME280;60317;48.880;-0.862;2023-04-01T13:58:01;99698.50;;;18.63;49.66